Lucerne, MO

8:28 PM CDT on July 06, 2015 (GMT -0500)
Unionville MO | | Change Station
CLOSE
Current Station
Personal Weather Station
Location: Unionville, MO
Elevation: 1053 ft
Nearby Weather Stations

Elev 1053 ft 40.39 °N, 93.06 °W | Updated 2 seconds ago

Rain
Rain
71.2 °F
Feels Like 71.2 °F
N
4.5
Wind Variable Wind from North
Gusts 6.0 mph

Today
High -- | Low -- °F
--% Chance of Precip.
Yesterday
High -- | Low -- °F
Precip. -- in
5:49 AM 8:46 PM
Waning Gibbous, 70% visible
Pressure 29.90 in
Visibility 10.0 miles
Clouds Mostly Cloudy 100 ft
Mostly Cloudy 500 ft
Overcast 3200 ft
Dew Point 67 °F
Humidity 87%
Rainfall 1.02 in
Snow Depth Not available.
UV 0 out of 12
Pollen 1.30 out of 12
Air Quality Not available.
Flu Activity Not available.
METAR KTVK 070115Z AUTO 36006KT 10SM -RA BKN001 BKN005 OVC032 22/21 A2990 RMK AO2

More Conditions Fewer Conditions

Pressure 29.90 in
Visibility 10.0 miles
Clouds Mostly Cloudy 100 ft
Mostly Cloudy 500 ft
Overcast 3200 ft
Dew Point 67 °F
Humidity 87%
Rainfall 1.02 in
Snow Depth Not available.
UV 0 out of 12
Pollen 1.30 out of 12
Air Quality Not available.
Flu Activity Not available.
METAR KTVK 070115Z AUTO 36006KT 10SM -RA BKN001 BKN005 OVC032 22/21 A2990 RMK AO2

More Conditions Fewer Conditions

10-Day Weather Forecast

×

Almanac

Astronomy

Jul. 06, 2015 Rise Set
Actual Time
Civil Twilight
Nautical Twilight
Astronomical Twilight
Moon
Length of Visible Light
Length of Day
Tomorrow will be .
, % of the Moon is Illuminated

Today's Extremes

State Highs State Lows

Community

WunderPhotos

Upload Photos

1,835,689 photos uploaded!

WunderBlogs® & News

Nearby

Air Quality

  Air Quality AQ Index Pollutant
Not available.

Snow Depth

Station Depth Elevation

Earthquake Activity

City Distance Mag. Time & Date
Minimum magnitude displayed is 2.5.

Coastal Water Temperatures

Place Temperature

Stations

Nearby Weather Stations

Station Location Temp. Windchill Dew Point Humidity Wind Precip. Elev Updated Type